createdAt,value
2018-01-16T00:01:40.941Z,7.29
2018-01-16T00:04:12.193Z,7.33
2018-01-16T00:06:43.251Z,7.34
2018-01-16T00:09:14.352Z,7.32
2018-01-16T00:11:45.425Z,7.27
2018-01-16T00:14:16.597Z,7.27
2018-01-16T00:16:47.653Z,7.29
2018-01-16T00:19:18.971Z,7.27
2018-01-16T00:21:50.112Z,7.19
2018-01-16T00:24:21.362Z,7.23
2018-01-16T00:26:52.617Z,7.29
2018-01-16T00:29:23.719Z,7.29
2018-01-16T00:31:54.783Z,7.33
2018-01-16T00:34:26.159Z,7.36
2018-01-16T00:36:57.275Z,7.41
2018-01-16T00:39:28.425Z,7.38
2018-01-16T00:41:59.480Z,7.39
2018-01-16T00:44:30.730Z,7.40
2018-01-16T00:47:01.842Z,7.36
2018-01-16T00:49:33.027Z,7.32
2018-01-16T00:52:04.293Z,7.28
2018-01-16T00:54:35.459Z,7.30
2018-01-16T00:57:06.545Z,7.35
2018-01-16T00:59:37.703Z,7.43
2018-01-16T01:02:08.872Z,7.48
2018-01-16T01:04:40.131Z,7.49
2018-01-16T01:07:11.212Z,7.54
2018-01-16T01:09:43.287Z,7.63
2018-01-16T01:12:14.593Z,7.70
2018-01-16T01:14:45.692Z,7.75
2018-01-16T01:17:16.764Z,7.83
2018-01-16T01:19:47.874Z,7.85
2018-01-16T01:22:19.073Z,7.89
2018-01-16T01:24:50.329Z,7.90
2018-01-16T01:27:21.474Z,7.92
2018-01-16T01:29:52.625Z,7.84
2018-01-16T01:32:23.669Z,7.89
2018-01-16T01:34:54.904Z,7.94
2018-01-16T01:37:26.062Z,7.93
2018-01-16T01:39:57.841Z,7.91
2018-01-16T01:42:28.909Z,7.91
2018-01-16T01:44:59.988Z,7.79
2018-01-16T01:47:31.078Z,7.78
2018-01-16T01:50:02.232Z,7.80
2018-01-16T01:52:33.361Z,7.59
2018-01-16T01:55:04.550Z,7.64
2018-01-16T01:57:35.589Z,7.66
2018-01-16T02:00:06.697Z,7.55
2018-01-16T02:02:38.045Z,7.55
2018-01-16T02:05:09.293Z,7.53
2018-01-16T02:07:40.359Z,7.56
2018-01-16T02:10:11.502Z,7.58
2018-01-16T02:12:42.632Z,7.55
2018-01-16T02:15:14.375Z,7.58
2018-01-16T02:17:45.541Z,7.65
2018-01-16T02:20:17.199Z,7.70
2018-01-16T02:22:48.334Z,7.75
2018-01-16T02:25:20.494Z,7.64
2018-01-16T02:27:51.537Z,7.61
2018-01-16T02:30:22.678Z,7.67
2018-01-16T02:32:53.767Z,7.65
2018-01-16T02:35:25.004Z,7.65
2018-01-16T02:37:57.409Z,7.68
2018-01-16T02:40:28.511Z,7.70
2018-01-16T02:42:59.882Z,7.70
2018-01-16T02:45:30.981Z,7.75
2018-01-16T02:48:02.153Z,7.71
2018-01-16T02:50:33.327Z,7.70
2018-01-16T02:53:04.771Z,7.59
2018-01-16T02:55:35.840Z,7.62
2018-01-16T02:58:06.989Z,7.61
2018-01-16T03:00:38.109Z,7.67
2018-01-16T03:03:09.256Z,7.75
2018-01-16T03:05:41.308Z,7.79
2018-01-16T03:08:12.567Z,7.88
2018-01-16T03:10:44.251Z,7.95
2018-01-16T03:13:15.358Z,8.00
2018-01-16T03:15:46.628Z,8.01
2018-01-16T03:18:18.492Z,8.02
2018-01-16T03:20:49.609Z,7.95
2018-01-16T03:23:20.687Z,8.00
2018-01-16T03:25:51.833Z,7.94
2018-01-16T03:28:22.856Z,7.94
2018-01-16T03:30:53.970Z,8.01
2018-01-16T03:33:25.165Z,8.05
2018-01-16T03:35:56.418Z,8.06
2018-01-16T03:38:27.534Z,8.06
2018-01-16T03:40:58.653Z,7.99
2018-01-16T03:43:29.743Z,8.04
2018-01-16T03:46:00.894Z,8.09
2018-01-16T03:48:32.256Z,8.13
2018-01-16T03:51:03.612Z,8.05
2018-01-16T03:53:35.285Z,8.09
2018-01-16T03:56:06.424Z,8.12
2018-01-16T03:58:37.662Z,8.15
2018-01-16T04:01:08.832Z,8.20
2018-01-16T04:03:39.924Z,8.27
2018-01-16T04:06:11.098Z,8.29
2018-01-16T04:08:42.353Z,8.32
2018-01-16T04:11:13.706Z,8.38
2018-01-16T04:13:44.826Z,8.43
2018-01-16T04:16:15.911Z,8.41
2018-01-16T04:18:46.994Z,8.37
2018-01-16T04:21:18.096Z,8.40
2018-01-16T04:23:56.604Z,8.42
2018-01-16T04:26:27.852Z,8.37
2018-01-16T04:28:59.102Z,8.45
2018-01-16T04:31:30.351Z,8.49
2018-01-16T04:34:01.488Z,8.57
2018-01-16T04:36:32.592Z,8.65
2018-01-16T04:39:03.711Z,8.68
2018-01-16T04:41:34.939Z,8.71
2018-01-16T04:44:06.115Z,8.80
2018-01-16T04:46:38.373Z,8.84
2018-01-16T04:49:09.489Z,8.88
2018-01-16T04:51:40.573Z,8.92
2018-01-16T04:54:11.651Z,8.93
2018-01-16T04:56:43.150Z,8.88
2018-01-16T04:59:14.227Z,8.96
2018-01-16T05:01:46.102Z,9.00
2018-01-16T05:04:17.315Z,9.10
2018-01-16T05:06:48.431Z,9.15
2018-01-16T05:09:19.495Z,9.08
2018-01-16T05:11:50.553Z,8.96
2018-01-16T05:14:21.794Z,9.03
2018-01-16T05:16:52.942Z,9.06
2018-01-16T05:19:24.048Z,9.07
2018-01-16T05:21:55.297Z,9.11
2018-01-16T05:24:26.477Z,9.11
2018-01-16T05:26:57.544Z,9.16
2018-01-16T05:29:29.291Z,9.18
2018-01-16T05:32:00.540Z,9.19
2018-01-16T05:34:31.631Z,9.22
2018-01-16T05:37:03.669Z,9.18
2018-01-16T05:39:35.004Z,9.20
2018-01-16T05:42:06.120Z,9.22
2018-01-16T05:44:41.074Z,9.24
2018-01-16T05:47:12.133Z,9.26
2018-01-16T05:49:43.854Z,9.29
2018-01-16T05:52:15.037Z,9.26
2018-01-16T05:54:46.150Z,9.29
2018-01-16T05:57:17.317Z,9.26
2018-01-16T05:59:48.466Z,9.24
2018-01-16T06:02:19.592Z,9.26
2018-01-16T06:04:50.767Z,9.19
2018-01-16T06:07:22.115Z,9.22
2018-01-16T06:09:53.476Z,9.19
2018-01-16T06:12:24.575Z,9.20
2018-01-16T06:14:55.664Z,9.18
2018-01-16T06:17:26.733Z,9.15
2018-01-16T06:19:58.062Z,9.08
2018-01-16T06:22:29.113Z,9.09
2018-01-16T06:25:00.199Z,9.03
2018-01-16T06:27:31.403Z,9.10
2018-01-16T06:30:02.651Z,9.10
2018-01-16T06:32:33.745Z,9.14
2018-01-16T06:35:05.047Z,9.21
2018-01-16T06:37:36.292Z,9.30
2018-01-16T06:40:07.434Z,9.27
2018-01-16T06:42:38.693Z,9.19
2018-01-16T06:45:10.346Z,9.13
2018-01-16T06:47:42.727Z,9.17
2018-01-16T06:50:13.783Z,9.22
2018-01-16T06:52:45.003Z,9.24
2018-01-16T06:55:16.117Z,9.29
2018-01-16T06:57:47.461Z,9.29
2018-01-16T07:00:18.769Z,9.29
2018-01-16T07:02:49.858Z,9.40
2018-01-16T07:05:21.267Z,9.45
2018-01-16T07:07:52.314Z,9.44
2018-01-16T07:10:23.561Z,9.45
2018-01-16T07:12:54.651Z,9.43
2018-01-16T07:15:25.783Z,9.43
2018-01-16T07:17:56.895Z,9.40
2018-01-16T07:20:27.976Z,9.39
2018-01-16T07:22:59.048Z,9.26
2018-01-16T07:25:30.164Z,9.19
2018-01-16T07:28:01.385Z,9.24
2018-01-16T07:30:32.532Z,9.19
2018-01-16T07:33:03.666Z,9.11
2018-01-16T07:35:34.754Z,9.17
2018-01-16T07:38:05.901Z,9.13
2018-01-16T07:40:37.222Z,9.00
2018-01-16T07:43:08.297Z,8.98
2018-01-16T07:45:39.387Z,8.98
2018-01-16T07:48:11.186Z,9.14
2018-01-16T07:50:42.591Z,9.11
2018-01-16T07:53:13.692Z,9.17
2018-01-16T07:55:44.919Z,9.30
2018-01-16T07:58:16.030Z,9.37
2018-01-16T08:00:47.217Z,9.42
2018-01-16T08:03:18.569Z,9.27
2018-01-16T08:05:49.632Z,9.27
2018-01-16T08:08:21.310Z,9.44
2018-01-16T08:10:52.511Z,9.76
2018-01-16T08:13:23.770Z,9.87
2018-01-16T08:15:54.847Z,9.77
2018-01-16T08:18:26.061Z,9.82
2018-01-16T08:20:57.161Z,9.69
2018-01-16T08:23:28.249Z,9.76
2018-01-16T08:25:59.341Z,10.07
2018-01-16T08:28:30.584Z,10.21
2018-01-16T08:31:01.849Z,10.30
2018-01-16T08:33:33.144Z,10.73
2018-01-16T08:36:04.281Z,10.78
2018-01-16T08:38:35.367Z,10.83
2018-01-16T08:41:06.470Z,10.88
2018-01-16T08:43:37.557Z,10.70
2018-01-16T08:46:08.784Z,10.58
2018-01-16T08:48:39.845Z,10.50
2018-01-16T08:51:11.385Z,10.43
2018-01-16T08:53:43.579Z,10.64
2018-01-16T08:56:14.804Z,10.67
2018-01-16T08:58:45.889Z,10.60
2018-01-16T09:01:17.781Z,10.67
2018-01-16T09:03:49.054Z,10.77
2018-01-16T09:06:35.244Z,10.61
2018-01-16T09:09:06.394Z,10.64
2018-01-16T09:11:37.523Z,11.67
2018-01-16T09:14:08.937Z,13.03
2018-01-16T09:16:40.036Z,12.29
2018-01-16T09:19:11.296Z,12.17
2018-01-16T09:21:42.545Z,11.76
2018-01-16T09:24:13.695Z,11.24
2018-01-16T09:26:44.826Z,10.96
2018-01-16T09:29:16.882Z,11.07
2018-01-16T09:31:48.007Z,11.00
2018-01-16T09:34:19.110Z,11.01
2018-01-16T09:36:50.192Z,10.77
2018-01-16T09:39:21.396Z,10.58
2018-01-16T09:41:52.492Z,10.28
2018-01-16T09:44:23.688Z,10.06
2018-01-16T09:46:55.040Z,9.77
2018-01-16T09:49:26.391Z,9.65
2018-01-16T09:51:57.636Z,9.50
2018-01-16T09:54:28.896Z,9.43
2018-01-16T09:57:00.050Z,9.34
2018-01-16T09:59:31.868Z,9.29
2018-01-16T10:02:02.956Z,9.25
2018-01-16T10:04:34.750Z,9.12
2018-01-16T10:07:05.912Z,8.93
2018-01-16T10:09:37.204Z,8.70
2018-01-16T10:12:08.479Z,8.55
2018-01-16T10:14:39.814Z,8.50
2018-01-16T10:17:11.044Z,9.06
2018-01-16T10:19:42.149Z,9.55
2018-01-16T10:22:13.352Z,9.57
2018-01-16T10:24:51.522Z,10.07
2018-01-16T10:27:23.419Z,10.84
2018-01-16T10:29:54.759Z,11.72
2018-01-16T10:32:25.814Z,13.47
2018-01-16T10:34:56.961Z,14.97
2018-01-16T10:37:28.533Z,15.63
2018-01-16T10:39:59.677Z,16.49
2018-01-16T10:42:30.916Z,17.20
2018-01-16T10:45:02.168Z,16.94
2018-01-16T10:47:33.312Z,16.06
2018-01-16T10:50:04.382Z,16.12
2018-01-16T10:52:35.708Z,15.45
2018-01-16T10:55:06.784Z,15.24
2018-01-16T10:57:38.208Z,14.65
2018-01-16T11:00:09.235Z,14.33
2018-01-16T11:02:40.487Z,13.60
2018-01-16T11:05:11.750Z,13.09
2018-01-16T11:07:42.898Z,12.86
2018-01-16T11:10:14.140Z,12.63
2018-01-16T11:12:45.198Z,12.36
2018-01-16T11:15:16.540Z,12.61
2018-01-16T11:17:47.793Z,12.81
2018-01-16T11:20:18.891Z,13.28
2018-01-16T11:22:49.972Z,13.40
2018-01-16T11:25:21.022Z,13.33
2018-01-16T11:27:52.141Z,13.08
2018-01-16T11:30:23.425Z,12.83
2018-01-16T11:32:54.537Z,12.49
2018-01-16T11:35:25.926Z,12.08
2018-01-16T11:37:56.982Z,11.74
2018-01-16T11:40:28.218Z,11.49
2018-01-16T11:42:59.308Z,11.33
2018-01-16T11:45:30.452Z,11.25
2018-01-16T11:48:01.530Z,11.12
2018-01-16T11:50:32.624Z,11.13
2018-01-16T11:53:03.716Z,11.28
2018-01-16T11:55:35.367Z,11.19
2018-01-16T11:58:06.540Z,11.09
2018-01-16T12:00:37.803Z,10.90
2018-01-16T12:03:09.006Z,10.97
2018-01-16T12:05:40.148Z,11.13
2018-01-16T12:08:11.209Z,11.05
2018-01-16T12:10:43.210Z,10.95
2018-01-16T12:13:14.301Z,10.99
2018-01-16T12:15:45.496Z,10.99
2018-01-16T12:18:17.289Z,11.26
2018-01-16T12:20:48.514Z,11.30
2018-01-16T12:23:19.606Z,11.32
2018-01-16T12:25:50.811Z,11.17
2018-01-16T12:28:21.888Z,10.85
2018-01-16T12:30:52.966Z,10.73
2018-01-16T12:33:24.062Z,10.70
2018-01-16T12:35:55.163Z,10.86
2018-01-16T12:38:26.260Z,11.07
2018-01-16T12:40:57.365Z,11.07
2018-01-16T12:43:28.655Z,11.00
2018-01-16T12:45:59.759Z,10.93
2018-01-16T12:48:30.873Z,10.91
2018-01-16T12:51:01.982Z,10.92
2018-01-16T12:53:33.356Z,11.08
2018-01-16T12:56:05.085Z,11.15
2018-01-16T12:58:36.174Z,11.08
2018-01-16T13:01:07.269Z,10.98
2018-01-16T13:03:38.416Z,10.77
2018-01-16T13:06:09.534Z,10.74
2018-01-16T13:08:40.716Z,10.71
2018-01-16T13:11:11.765Z,10.73
2018-01-16T13:13:43.014Z,10.93
2018-01-16T13:16:14.265Z,10.96
2018-01-16T13:18:45.388Z,10.82
2018-01-16T13:21:16.657Z,10.82
2018-01-16T13:23:47.905Z,10.78
2018-01-16T13:26:19.014Z,10.79
2018-01-16T13:28:50.182Z,10.59
2018-01-16T13:31:21.340Z,10.44
2018-01-16T13:33:52.383Z,10.35
2018-01-16T13:36:23.540Z,10.49
2018-01-16T13:38:54.786Z,10.46
2018-01-16T13:41:26.018Z,10.28
2018-01-16T13:43:57.188Z,10.02
2018-01-16T13:46:28.316Z,9.74
2018-01-16T13:48:59.408Z,9.68
2018-01-16T13:51:30.487Z,9.54
2018-01-16T13:54:02.284Z,9.18
2018-01-16T13:56:33.398Z,8.96
2018-01-16T13:59:04.484Z,8.70
2018-01-16T14:01:35.720Z,8.65
2018-01-16T14:04:06.829Z,8.60
2018-01-16T14:06:37.927Z,8.82
2018-01-16T14:09:09.146Z,8.85
2018-01-16T14:11:40.243Z,8.73
2018-01-16T14:14:11.275Z,8.52
2018-01-16T14:16:42.607Z,8.53
2018-01-16T14:19:13.711Z,8.60
2018-01-16T14:21:44.803Z,8.64
2018-01-16T14:24:17.179Z,8.67
2018-01-16T14:26:48.316Z,8.62
2018-01-16T14:29:19.443Z,8.61
2018-01-16T14:31:50.520Z,8.54
2018-01-16T14:34:21.658Z,8.58
2018-01-16T14:36:53.207Z,8.59
2018-01-16T14:39:25.075Z,8.65
2018-01-16T14:41:56.313Z,8.89
2018-01-16T14:44:27.579Z,8.83
2018-01-16T14:46:58.831Z,8.73
2018-01-16T14:49:30.076Z,8.67
2018-01-16T14:52:01.324Z,8.54
2018-01-16T14:54:32.453Z,8.54
2018-01-16T14:57:03.620Z,8.52
2018-01-16T14:59:34.970Z,8.60
2018-01-16T15:02:06.060Z,8.55
2018-01-16T15:04:37.366Z,8.34
2018-01-16T15:07:08.500Z,8.10
2018-01-16T15:09:39.611Z,7.95
2018-01-16T15:12:10.683Z,7.84
2018-01-16T15:14:41.821Z,7.82
2018-01-16T15:17:12.943Z,7.87
2018-01-16T15:19:44.863Z,7.82
2018-01-16T15:22:15.974Z,7.90
2018-01-16T15:24:47.138Z,7.96
2018-01-16T15:27:18.508Z,8.02
2018-01-16T15:29:49.578Z,7.94
2018-01-16T15:32:20.661Z,7.76
2018-01-16T15:34:51.741Z,7.56
2018-01-16T15:37:23.582Z,7.47
2018-01-16T15:39:54.822Z,7.36
2018-01-16T15:42:25.995Z,7.25
2018-01-16T15:44:57.239Z,7.27
2018-01-16T15:47:28.503Z,7.23
2018-01-16T15:49:59.752Z,7.24
2018-01-16T15:52:30.896Z,7.31
2018-01-16T15:55:02.134Z,7.45
2018-01-16T15:57:33.256Z,7.54
2018-01-16T16:00:04.532Z,7.77
2018-01-16T16:02:36.410Z,7.81
2018-01-16T16:05:07.563Z,7.79
2018-01-16T16:07:39.657Z,7.69
2018-01-16T16:10:10.726Z,7.53
2018-01-16T16:12:42.489Z,7.46
2018-01-16T16:15:13.606Z,7.41
2018-01-16T16:17:44.689Z,7.44
2018-01-16T16:20:15.959Z,7.55
2018-01-16T16:22:47.324Z,7.61
2018-01-16T16:25:18.554Z,7.61
2018-01-16T16:27:49.639Z,7.63
2018-01-16T16:30:20.714Z,7.70
2018-01-16T16:32:51.912Z,7.60
2018-01-16T16:35:23.981Z,7.59
2018-01-16T16:37:55.116Z,7.63
2018-01-16T16:40:26.364Z,7.61
2018-01-16T16:42:57.525Z,7.71
2018-01-16T16:45:28.585Z,7.71
2018-01-16T16:47:59.737Z,7.75
2018-01-16T16:50:30.849Z,7.77
2018-01-16T16:53:01.976Z,7.79
2018-01-16T16:55:33.156Z,7.80
2018-01-16T16:58:04.303Z,7.70
2018-01-16T17:00:35.834Z,7.77
2018-01-16T17:03:06.912Z,7.79
2018-01-16T17:05:38.033Z,7.80
2018-01-16T17:08:09.121Z,7.79
2018-01-16T17:10:40.230Z,7.72
2018-01-16T17:13:13.538Z,7.68
2018-01-16T17:15:44.669Z,7.55
2018-01-16T17:18:15.832Z,7.55
2018-01-16T17:20:47.185Z,7.53
2018-01-16T17:23:18.233Z,7.49
2018-01-16T17:25:49.479Z,7.53
2018-01-16T17:28:20.625Z,7.57
2018-01-16T17:30:51.728Z,7.54
2018-01-16T17:33:22.916Z,7.50
2018-01-16T17:35:54.043Z,7.49
2018-01-16T17:38:25.168Z,7.52
2018-01-16T17:40:56.360Z,7.49
2018-01-16T17:43:27.418Z,7.45
2018-01-16T17:45:58.524Z,7.45
2018-01-16T17:48:29.603Z,7.32
2018-01-16T17:51:00.952Z,7.34
2018-01-16T17:53:32.059Z,7.35
2018-01-16T17:56:03.133Z,7.30
2018-01-16T17:58:35.346Z,7.27
2018-01-16T18:01:06.408Z,7.31
2018-01-16T18:03:37.625Z,7.26
2018-01-16T18:06:08.834Z,7.31
2018-01-16T18:08:39.983Z,7.44
2018-01-16T18:11:11.146Z,7.45
2018-01-16T18:13:42.305Z,7.39
2018-01-16T18:16:13.372Z,7.39
2018-01-16T18:18:44.587Z,7.39
2018-01-16T18:21:15.723Z,7.43
2018-01-16T18:23:46.771Z,7.41
2018-01-16T18:26:18.014Z,7.48
2018-01-16T18:28:49.195Z,7.52
2018-01-16T18:31:20.424Z,7.39
2018-01-16T18:33:51.558Z,7.47
2018-01-16T18:36:22.822Z,7.66
2018-01-16T18:38:53.967Z,7.70
2018-01-16T18:41:25.216Z,7.72
2018-01-16T18:43:56.475Z,7.78
2018-01-16T18:46:27.835Z,7.75
2018-01-16T18:48:59.068Z,7.66
2018-01-16T18:51:30.205Z,7.58
2018-01-16T18:54:01.289Z,7.50
2018-01-16T18:56:32.714Z,7.52
2018-01-16T18:59:03.799Z,7.56
2018-01-16T19:01:35.009Z,7.52
2018-01-16T19:04:06.246Z,7.46
2018-01-16T19:06:37.344Z,7.49
2018-01-16T19:09:08.695Z,7.54
2018-01-16T19:11:39.902Z,7.51
2018-01-16T19:14:11.253Z,7.55
2018-01-16T19:16:42.377Z,7.48
2018-01-16T19:19:13.447Z,7.38
2018-01-16T19:21:45.239Z,7.34
2018-01-16T19:24:23.208Z,7.39
2018-01-16T19:26:54.532Z,7.36
2018-01-16T19:29:26.527Z,7.31
2018-01-16T19:31:57.579Z,7.35
2018-01-16T19:34:28.821Z,7.37
2018-01-16T19:36:59.953Z,7.41
2018-01-16T19:39:32.011Z,7.38
2018-01-16T19:42:03.284Z,7.37
2018-01-16T19:44:34.382Z,7.35
2018-01-16T19:47:05.867Z,7.37
2018-01-16T19:49:37.034Z,7.38
2018-01-16T19:52:08.137Z,7.37
2018-01-16T19:54:39.708Z,7.40
2018-01-16T19:57:11.840Z,7.45
2018-01-16T19:59:43.036Z,7.46
2018-01-16T20:02:14.220Z,7.44
2018-01-16T20:04:45.355Z,7.39
2018-01-16T20:07:16.698Z,7.46
2018-01-16T20:09:47.801Z,7.46
2018-01-16T20:12:20.810Z,7.47
2018-01-16T20:14:51.857Z,7.55
2018-01-16T20:17:22.973Z,7.61
2018-01-16T20:19:54.378Z,7.60
2018-01-16T20:22:25.485Z,7.59
2018-01-16T20:24:56.673Z,7.55
2018-01-16T20:27:27.810Z,7.35
2018-01-16T20:29:59.171Z,7.25
2018-01-16T20:32:30.358Z,7.21
2018-01-16T20:35:01.564Z,7.15
2018-01-16T20:37:32.664Z,7.19
2018-01-16T20:40:06.760Z,7.27
2018-01-16T20:42:38.192Z,7.15
2018-01-16T20:45:10.878Z,7.10
2018-01-16T20:47:42.525Z,7.11
2018-01-16T20:50:14.282Z,7.24
2018-01-16T20:52:46.686Z,7.31
2018-01-16T20:55:17.887Z,7.32
2018-01-16T20:57:49.153Z,7.23
2018-01-16T21:00:20.403Z,7.16
2018-01-16T21:02:52.553Z,7.16
2018-01-16T21:05:23.667Z,7.15
2018-01-16T21:07:54.867Z,7.22
2018-01-16T21:10:26.246Z,7.12
2018-01-16T21:12:57.364Z,7.03
2018-01-16T21:15:28.489Z,7.12
2018-01-16T21:17:59.947Z,7.00
2018-01-16T21:20:31.215Z,6.95
2018-01-16T21:23:02.713Z,6.92
2018-01-16T21:25:33.919Z,6.92
2018-01-16T21:28:05.074Z,6.92
2018-01-16T21:30:36.164Z,6.99
2018-01-16T21:33:07.259Z,6.89
2018-01-16T21:35:38.508Z,6.87
2018-01-16T21:38:09.740Z,6.87
2018-01-16T21:40:40.998Z,6.77
2018-01-16T21:43:12.042Z,6.64
2018-01-16T21:45:43.169Z,6.52
2018-01-16T21:48:14.268Z,6.53
2018-01-16T21:50:45.391Z,6.45
2018-01-16T21:53:16.439Z,6.39
2018-01-16T21:55:47.682Z,6.37
2018-01-16T21:58:18.812Z,6.37
2018-01-16T22:00:49.912Z,6.43
2018-01-16T22:03:21.447Z,6.43
2018-01-16T22:05:52.577Z,6.42
2018-01-16T22:08:23.930Z,6.44
2018-01-16T22:10:55.024Z,6.62
2018-01-16T22:13:26.116Z,6.59
2018-01-16T22:15:57.475Z,6.58
2018-01-16T22:18:28.825Z,6.36
2018-01-16T22:21:00.176Z,6.22
2018-01-16T22:23:31.733Z,6.05
2018-01-16T22:26:02.983Z,5.89
2018-01-16T22:28:34.095Z,5.76
2018-01-16T22:31:05.401Z,5.80
2018-01-16T22:33:36.629Z,5.85
2018-01-16T22:36:07.776Z,5.95
2018-01-16T22:38:38.921Z,5.98
2018-01-16T22:41:10.014Z,5.91
2018-01-16T22:43:41.180Z,5.88
2018-01-16T22:46:12.269Z,5.86
2018-01-16T22:48:43.365Z,5.85
2018-01-16T22:51:14.655Z,5.90
2018-01-16T22:53:45.797Z,5.82
2018-01-16T22:56:16.920Z,5.84
2018-01-16T22:58:48.654Z,5.81
2018-01-16T23:01:19.962Z,5.84
2018-01-16T23:03:51.214Z,5.88
2018-01-16T23:06:22.349Z,5.88
2018-01-16T23:08:53.443Z,5.93
2018-01-16T23:11:24.839Z,5.98
2018-01-16T23:13:56.105Z,5.99
2018-01-16T23:16:27.456Z,6.04
2018-01-16T23:18:58.603Z,6.05
2018-01-16T23:21:29.697Z,6.05
2018-01-16T23:24:00.743Z,6.06
2018-01-16T23:26:32.335Z,6.14
2018-01-16T23:29:03.392Z,6.20
2018-01-16T23:31:34.501Z,6.11
2018-01-16T23:34:05.794Z,6.08
2018-01-16T23:36:37.144Z,6.19
2018-01-16T23:39:08.497Z,6.28
2018-01-16T23:41:40.602Z,6.28
2018-01-16T23:44:11.681Z,6.23
2018-01-16T23:46:42.729Z,6.05
2018-01-16T23:49:13.893Z,5.85
2018-01-16T23:51:45.036Z,5.63
2018-01-16T23:54:16.121Z,5.49
2018-01-16T23:56:47.264Z,5.51
2018-01-16T23:59:18.688Z,5.64
